Time;durP1;ratioP1;P1;durP2;ratioP2;P2;SDS_P1;SDS_P2;PMS_P1;PMS_P2;Temp;Humidity;BMP_temperature;BMP_pressure;BME280_temperature;BME280_humidity;BME280_pressure;Samples;Min_cycle;Max_cycle;Signal;HPM_P1;HPM_P2
2022/04/11 00:01:03;;;;;;;1.97;1.40;;;2.40;98.00;;;;;;5091073;28;20483;-66
2022/04/11 00:03:30;;;;;;;1.20;1.00;;;2.30;98.00;;;;;;5091138;28;20492;-65
2022/04/11 00:05:59;;;;;;;1.37;1.33;;;2.40;98.00;;;;;;5091115;28;20452;-65
2022/04/11 00:08:26;;;;;;;1.20;1.13;;;2.40;98.00;;;;;;5090981;28;20525;-65
2022/04/11 00:10:55;;;;;;;1.40;1.20;;;2.50;98.00;;;;;;5089611;28;21035;-66
2022/04/11 00:13:22;;;;;;;4.50;1.40;;;2.50;98.00;;;;;;5089677;28;20468;-65
2022/04/11 00:15:49;;;;;;;2.37;1.83;;;2.40;98.00;;;;;;5090687;28;20543;-65
2022/04/11 00:18:16;;;;;;;2.30;1.37;;;2.30;98.00;;;;;;5090824;28;20978;-66
2022/04/11 00:20:43;;;;;;;3.50;2.10;;;2.30;98.00;;;;;;5090800;28;20548;-65
2022/04/11 00:23:10;;;;;;;1.43;1.30;;;2.10;98.00;;;;;;5089829;28;20942;-64
2022/04/11 00:25:37;;;;;;;2.80;1.70;;;2.30;98.00;;;;;;5090814;28;20471;-65
2022/04/11 00:28:08;;;;;;;1.20;1.10;;;2.20;98.00;;;;;;5090929;28;20529;-65
2022/04/11 00:30:35;;;;;;;1.40;1.10;;;2.10;98.00;;;;;;5090662;28;20502;-65
2022/04/11 00:33:04;;;;;;;1.23;1.17;;;2.00;98.00;;;;;;5090753;28;20491;-65
2022/04/11 00:35:31;;;;;;;2.63;1.67;;;2.00;98.00;;;;;;5091079;28;20494;-65
2022/04/11 00:37:59;;;;;;;1.30;1.20;;;2.00;98.00;;;;;;5091009;28;20455;-66
2022/04/11 00:40:26;;;;;;;1.20;1.07;;;1.90;98.00;;;;;;5091004;28;20456;-65
2022/04/11 00:42:54;;;;;;;1.50;1.30;;;2.00;98.00;;;;;;5090862;28;20491;-65
2022/04/11 00:45:22;;;;;;;1.30;1.20;;;2.10;98.00;;;;;;5090797;28;20483;-65
2022/04/11 00:47:49;;;;;;;1.70;1.60;;;2.00;98.00;;;;;;5090555;28;20832;-65
2022/04/11 00:50:16;;;;;;;1.47;1.23;;;2.10;98.00;;;;;;5090716;28;20479;-65
2022/04/11 00:52:48;;;;;;;1.30;1.10;;;2.00;98.00;;;;;;5090733;28;20505;-65
2022/04/11 00:55:19;;;;;;;1.20;1.10;;;2.10;98.00;;;;;;5090452;28;20455;-65
2022/04/11 00:57:47;;;;;;;1.20;1.13;;;2.10;98.00;;;;;;5090423;28;20530;-65
2022/04/11 01:00:15;;;;;;;1.67;1.57;;;2.00;98.00;;;;;;5092854;28;20487;-65
2022/04/11 01:02:43;;;;;;;1.30;1.30;;;2.00;98.00;;;;;;5094314;28;20550;-65
2022/04/11 01:05:12;;;;;;;1.43;1.40;;;2.00;98.00;;;;;;5094273;28;20490;-66
2022/04/11 01:07:41;;;;;;;1.80;1.40;;;2.10;98.00;;;;;;5094223;28;20536;-65
2022/04/11 01:10:11;;;;;;;1.67;1.30;;;2.10;98.00;;;;;;5094068;28;20519;-65
2022/04/11 01:12:38;;;;;;;1.60;1.40;;;2.20;98.00;;;;;;5094111;28;20499;-65
2022/04/11 01:15:06;;;;;;;1.40;1.33;;;2.40;98.00;;;;;;5093997;28;21009;-64
2022/04/11 01:17:34;;;;;;;1.60;1.50;;;2.40;98.00;;;;;;5094018;28;20467;-65
2022/04/11 01:20:10;;;;;;;1.60;1.50;;;2.30;98.00;;;;;;5093848;28;20488;-65
2022/04/11 01:22:39;;;;;;;1.20;1.10;;;2.30;98.00;;;;;;5093865;28;20944;-65
2022/04/11 01:25:07;;;;;;;2.40;1.27;;;2.20;98.00;;;;;;5093683;28;20928;-65
2022/04/11 01:27:34;;;;;;;1.20;1.10;;;2.10;98.00;;;;;;5094075;28;20533;-66
2022/04/11 01:30:01;;;;;;;1.83;1.30;;;2.00;98.00;;;;;;5093547;28;20475;-65
2022/04/11 01:32:29;;;;;;;1.20;0.90;;;2.00;98.00;;;;;;5093978;28;20559;-65
2022/04/11 01:34:56;;;;;;;2.87;2.30;;;2.00;98.00;;;;;;5092625;28;20590;-66
2022/04/11 01:37:29;;;;;;;1.30;1.10;;;2.00;98.00;;;;;;5093778;28;20466;-65
2022/04/11 01:39:57;;;;;;;2.50;2.30;;;1.90;98.00;;;;;;5093704;28;20940;-65
2022/04/11 01:42:25;;;;;;;1.50;1.30;;;1.80;98.00;;;;;;5093707;28;20482;-65
2022/04/11 01:44:52;;;;;;;1.20;1.00;;;1.80;98.00;;;;;;5093384;28;20509;-65
2022/04/11 01:47:19;;;;;;;1.20;1.00;;;1.80;98.00;;;;;;5093568;28;20552;-65
2022/04/11 01:49:46;;;;;;;1.20;1.00;;;1.80;98.00;;;;;;5093292;28;20523;-66
2022/04/11 01:52:13;;;;;;;1.43;1.23;;;1.70;98.00;;;;;;5093239;28;20503;-65
2022/04/11 01:54:40;;;;;;;1.20;1.00;;;1.70;98.00;;;;;;5093192;28;20476;-66
2022/04/11 01:57:09;;;;;;;4.50;2.10;;;1.70;98.00;;;;;;5093069;28;20492;-65
2022/04/11 01:59:36;;;;;;;1.20;1.20;;;1.70;98.00;;;;;;5093120;28;20451;-65
2022/04/11 02:02:04;;;;;;;2.13;1.97;;;1.70;98.00;;;;;;5093163;28;20488;-65
2022/04/11 02:04:32;;;;;;;1.20;1.10;;;1.70;98.00;;;;;;5093221;28;20529;-65
2022/04/11 02:06:59;;;;;;;1.87;1.20;;;1.70;98.00;;;;;;5093152;28;20456;-65
2022/04/11 02:09:26;;;;;;;1.50;1.20;;;1.70;98.00;;;;;;5093078;28;20487;-65
2022/04/11 02:11:53;;;;;;;1.40;1.20;;;1.80;98.00;;;;;;5092105;28;20540;-65
2022/04/11 02:14:22;;;;;;;1.53;1.40;;;1.70;98.00;;;;;;5093214;28;20463;-65
2022/04/11 02:16:48;;;;;;;1.20;1.10;;;1.70;98.00;;;;;;5092686;28;20487;-65
2022/04/11 02:19:15;;;;;;;2.10;1.80;;;1.80;98.00;;;;;;5091521;28;20456;-65
2022/04/11 02:21:42;;;;;;;2.60;1.47;;;2.00;98.00;;;;;;5092994;28;20499;-64
2022/04/11 02:24:10;;;;;;;1.63;1.20;;;2.00;98.00;;;;;;5092981;28;20491;-66
2022/04/11 02:26:36;;;;;;;1.20;1.10;;;2.00;98.00;;;;;;5091724;28;20460;-65
2022/04/11 02:29:03;;;;;;;1.20;1.13;;;2.10;98.00;;;;;;5092605;28;20552;-65
2022/04/11 02:31:34;;;;;;;1.40;1.20;;;2.10;98.00;;;;;;5092612;28;20954;-65
2022/04/11 02:34:01;;;;;;;1.63;1.37;;;2.00;98.00;;;;;;5092684;28;20460;-66
2022/04/11 02:36:28;;;;;;;1.20;1.00;;;2.10;98.00;;;;;;5092341;28;20550;-66
2022/04/11 02:38:55;;;;;;;1.20;0.90;;;2.10;98.00;;;;;;5092455;28;20486;-65
2022/04/11 02:41:22;;;;;;;1.20;1.10;;;2.10;98.00;;;;;;5092542;28;20519;-65
2022/04/11 02:43:49;;;;;;;1.30;1.10;;;2.30;98.00;;;;;;5092278;28;20864;-65
2022/04/11 02:46:16;;;;;;;3.23;2.43;;;2.40;98.00;;;;;;5092238;28;20491;-65
2022/04/11 02:48:44;;;;;;;1.20;1.00;;;2.40;98.00;;;;;;5092177;28;20511;-65
2022/04/11 02:51:11;;;;;;;1.20;1.00;;;2.40;98.00;;;;;;5092272;28;20492;-65
2022/04/11 02:53:38;;;;;;;1.20;1.10;;;2.30;98.00;;;;;;5092220;28;20456;-65
2022/04/11 02:56:06;;;;;;;1.97;1.87;;;2.40;98.00;;;;;;5091955;28;20452;-64
2022/04/11 02:58:34;;;;;;;1.30;1.20;;;2.50;98.00;;;;;;5092154;28;20894;-64
2022/04/11 03:01:01;;;;;;;1.30;1.13;;;2.60;98.00;;;;;;5092008;28;20950;-65
2022/04/11 03:03:28;;;;;;;1.20;1.00;;;2.50;98.00;;;;;;5091907;28;20517;-65
2022/04/11 03:05:56;;;;;;;1.20;1.00;;;2.50;98.00;;;;;;5091755;28;20483;-66
2022/04/11 03:08:23;;;;;;;1.20;1.10;;;2.30;98.00;;;;;;5092074;28;20460;-65
2022/04/11 03:10:50;;;;;;;1.30;1.10;;;2.30;98.00;;;;;;5090667;28;20567;-66
2022/04/11 03:13:17;;;;;;;2.07;1.53;;;2.20;98.00;;;;;;5092163;28;20491;-65
2022/04/11 03:15:44;;;;;;;1.47;1.37;;;2.20;98.00;;;;;;5092076;28;20491;-65
2022/04/11 03:18:11;;;;;;;1.80;1.60;;;2.10;98.00;;;;;;5091636;28;20494;-65
2022/04/11 03:20:38;;;;;;;3.33;1.50;;;2.20;98.00;;;;;;5091768;28;20483;-65
2022/04/11 03:23:07;;;;;;;1.50;1.40;;;2.20;98.00;;;;;;5091555;28;20494;-65
2022/04/11 03:25:34;;;;;;;1.50;1.40;;;2.30;98.00;;;;;;5091658;28;20487;-65
2022/04/11 03:28:00;;;;;;;1.20;1.03;;;2.30;98.00;;;;;;5091563;28;20444;-65
2022/04/11 03:30:28;;;;;;;1.20;1.00;;;2.40;98.00;;;;;;5090209;28;20511;-65
2022/04/11 03:32:55;;;;;;;1.70;1.40;;;2.50;98.00;;;;;;5090156;28;20513;-64
2022/04/11 03:35:27;;;;;;;1.53;1.47;;;2.40;98.00;;;;;;5091454;28;20970;-67
2022/04/11 03:37:54;;;;;;;1.20;1.00;;;2.50;98.00;;;;;;5091456;28;20463;-67
2022/04/11 03:40:22;;;;;;;3.07;2.10;;;2.30;98.00;;;;;;5091235;28;20489;-68
2022/04/11 03:42:49;;;;;;;1.70;1.33;;;2.30;98.00;;;;;;5091510;28;20480;-68
2022/04/11 03:45:16;;;;;;;1.30;1.23;;;2.20;98.00;;;;;;5091075;28;20503;-68
2022/04/11 03:47:43;;;;;;;2.23;1.30;;;2.10;98.00;;;;;;5091349;28;20495;-68
2022/04/11 03:50:10;;;;;;;1.17;1.00;;;2.30;98.00;;;;;;5091171;28;21001;-68
2022/04/11 03:52:37;;;;;;;1.30;1.30;;;2.40;98.00;;;;;;5091418;28;20543;-67
2022/04/11 03:55:05;;;;;;;1.20;1.00;;;2.30;98.00;;;;;;5073301;28;20483;-67
2022/04/11 03:57:34;;;;;;;1.73;1.10;;;2.10;98.00;;;;;;5091166;28;20861;-67
2022/04/11 04:00:01;;;;;;;1.20;1.00;;;2.10;98.00;;;;;;5089927;28;20996;-69
2022/04/11 04:02:31;;;;;;;1.20;1.00;;;2.30;98.00;;;;;;5091430;28;20498;-67
2022/04/11 04:04:58;;;;;;;1.20;1.00;;;2.30;98.00;;;;;;5091279;28;20452;-67
2022/04/11 04:07:25;;;;;;;1.20;1.10;;;2.40;98.00;;;;;;5091431;28;20543;-67
2022/04/11 04:09:52;;;;;;;1.30;1.27;;;2.50;98.00;;;;;;5089911;28;20552;-68
2022/04/11 04:12:20;;;;;;;1.60;1.40;;;2.40;98.00;;;;;;5091107;28;20488;-67
2022/04/11 04:14:49;;;;;;;1.67;1.50;;;2.30;98.00;;;;;;5090935;28;20474;-67
2022/04/11 04:17:16;;;;;;;1.50;1.43;;;2.10;98.00;;;;;;5090960;28;20492;-68
2022/04/11 04:19:45;;;;;;;2.33;1.67;;;2.00;98.00;;;;;;5090971;28;20455;-68
2022/04/11 04:22:13;;;;;;;1.20;1.10;;;1.90;98.00;;;;;;5089798;28;20490;-66
2022/04/11 04:24:40;;;;;;;1.53;1.53;;;1.80;98.00;;;;;;5090827;28;20496;-65
2022/04/11 04:27:08;;;;;;;1.63;1.30;;;1.70;98.00;;;;;;5090930;28;20452;-65
2022/04/11 04:29:35;;;;;;;3.30;1.47;;;1.70;98.00;;;;;;5090730;28;21081;-66
2022/04/11 04:32:04;;;;;;;1.40;1.17;;;1.60;98.00;;;;;;5091016;28;20989;-64
2022/04/11 04:34:31;;;;;;;1.30;1.20;;;1.60;98.00;;;;;;5091856;28;20456;-65
2022/04/11 04:36:58;;;;;;;2.53;1.80;;;1.50;98.00;;;;;;5094792;28;20455;-65
2022/04/11 04:39:25;;;;;;;1.20;1.00;;;1.50;98.00;;;;;;5094663;28;20838;-64
2022/04/11 04:41:52;;;;;;;1.57;1.53;;;1.60;98.00;;;;;;5094936;28;20491;-65
2022/04/11 04:44:19;;;;;;;1.20;1.10;;;1.60;98.00;;;;;;5094713;28;20542;-65
2022/04/11 04:46:46;;;;;;;1.47;1.10;;;1.70;98.00;;;;;;5094589;28;20488;-66
2022/04/11 04:49:14;;;;;;;1.60;1.43;;;1.70;98.00;;;;;;5094506;28;20969;-65
2022/04/11 04:51:41;;;;;;;1.30;1.17;;;1.70;98.00;;;;;;5094429;28;20552;-65
2022/04/11 04:54:08;;;;;;;1.20;1.17;;;1.60;98.00;;;;;;5093382;28;20502;-65
2022/04/11 04:56:36;;;;;;;1.20;1.17;;;1.70;98.00;;;;;;5094597;28;20478;-65
2022/04/11 04:59:03;;;;;;;2.00;1.90;;;1.70;98.00;;;;;;5094604;28;20486;-65
2022/04/11 05:01:30;;;;;;;2.00;1.63;;;1.70;98.00;;;;;;5093048;28;20864;-65
2022/04/11 05:03:57;;;;;;;1.20;1.00;;;1.60;98.00;;;;;;5094510;28;20487;-65
2022/04/11 05:06:26;;;;;;;2.10;1.70;;;1.70;98.00;;;;;;5094149;28;20504;-65
2022/04/11 05:08:52;;;;;;;1.30;1.13;;;1.60;98.00;;;;;;5094238;28;20522;-64
2022/04/11 05:11:20;;;;;;;1.87;1.73;;;1.70;98.00;;;;;;5094073;28;20522;-65
2022/04/11 05:13:47;;;;;;;1.40;1.30;;;1.70;98.00;;;;;;5094214;28;20447;-66
2022/04/11 05:16:15;;;;;;;1.20;1.00;;;1.80;98.00;;;;;;5093895;28;20487;-65
2022/04/11 05:18:44;;;;;;;3.57;1.43;;;1.90;98.00;;;;;;5094244;28;20517;-65
2022/04/11 05:21:11;;;;;;;1.30;1.27;;;1.90;98.00;;;;;;5092522;28;20870;-65
2022/04/11 05:23:41;;;;;;;3.53;1.57;;;2.00;98.00;;;;;;5093938;28;20495;-65
2022/04/11 05:26:08;;;;;;;3.33;1.47;;;2.10;98.00;;;;;;5092562;28;20911;-64
2022/04/11 05:28:35;;;;;;;1.43;1.43;;;1.90;98.00;;;;;;5093941;28;20458;-65
2022/04/11 05:31:02;;;;;;;1.67;1.57;;;1.80;98.00;;;;;;5093649;28;20570;-65
2022/04/11 05:33:29;;;;;;;1.20;1.20;;;1.70;98.00;;;;;;5092691;28;20501;-66
2022/04/11 05:35:57;;;;;;;1.20;1.00;;;1.80;98.00;;;;;;5093561;28;20487;-65
2022/04/11 05:38:24;;;;;;;1.40;1.27;;;1.80;98.00;;;;;;5093801;28;20886;-65
2022/04/11 05:40:53;;;;;;;1.73;1.20;;;1.80;98.00;;;;;;5093604;28;20596;-65
2022/04/11 05:43:20;;;;;;;1.30;1.23;;;2.00;98.00;;;;;;5093631;28;20491;-65
2022/04/11 05:45:47;;;;;;;1.40;1.20;;;2.00;98.00;;;;;;5093331;28;20551;-65
2022/04/11 05:48:14;;;;;;;1.30;1.20;;;2.00;98.00;;;;;;5093657;28;20496;-66
2022/04/11 05:50:43;;;;;;;1.20;1.00;;;1.90;98.00;;;;;;5093627;28;20480;-65
2022/04/11 05:53:10;;;;;;;4.40;1.87;;;1.80;98.00;;;;;;5093397;28;20486;-65
2022/04/11 05:55:41;;;;;;;1.97;1.30;;;1.70;98.00;;;;;;5093361;28;20950;-65
2022/04/11 05:58:10;;;;;;;1.50;1.40;;;1.70;98.00;;;;;;5092073;28;20448;-65
2022/04/11 06:00:37;;;;;;;1.83;1.37;;;1.80;98.00;;;;;;5093138;28;20494;-68
2022/04/11 06:03:04;;;;;;;1.87;1.50;;;1.90;98.00;;;;;;5093361;28;20499;-68
2022/04/11 06:05:30;;;;;;;2.13;1.90;;;2.00;98.00;;;;;;5091889;28;20480;-68
2022/04/11 06:07:57;;;;;;;1.60;1.60;;;2.10;98.00;;;;;;5093306;28;20488;-68
2022/04/11 06:10:24;;;;;;;1.30;1.30;;;2.20;98.00;;;;;;5092943;28;20519;-68
2022/04/11 06:12:51;;;;;;;1.90;1.87;;;2.10;98.00;;;;;;5093039;28;20491;-68
2022/04/11 06:15:19;;;;;;;1.30;1.20;;;2.20;98.00;;;;;;5092888;28;20478;-66
2022/04/11 06:17:46;;;;;;;1.20;1.10;;;2.20;98.00;;;;;;5092802;28;20551;-67
2022/04/11 06:20:13;;;;;;;3.33;2.10;;;2.30;98.00;;;;;;5092774;28;20515;-67
2022/04/11 06:22:45;;;;;;;4.97;2.10;;;2.60;98.00;;;;;;5092823;28;20509;-67
2022/04/11 06:25:12;;;;;;;1.73;1.40;;;2.70;98.00;;;;;;5092579;28;20509;-67
2022/04/11 06:27:39;;;;;;;2.13;1.63;;;2.90;98.00;;;;;;5091524;28;20841;-66
2022/04/11 06:30:07;;;;;;;1.20;1.10;;;3.10;98.00;;;;;;5092569;28;20487;-67
2022/04/11 06:32:36;;;;;;;2.67;2.43;;;3.30;98.00;;;;;;5092271;28;20466;-66
2022/04/11 06:35:03;;;;;;;2.20;1.60;;;3.30;98.00;;;;;;5093326;28;20487;-66
2022/04/11 06:37:30;;;;;;;1.70;1.63;;;3.30;98.00;;;;;;5093291;28;20480;-66
2022/04/11 06:39:58;;;;;;;1.30;1.10;;;3.40;98.00;;;;;;5093232;28;20497;-66
2022/04/11 06:42:26;;;;;;;1.97;1.87;;;3.50;98.00;;;;;;5093247;28;20455;-66
2022/04/11 06:44:52;;;;;;;1.20;1.00;;;3.50;98.00;;;;;;5092974;28;20930;-66
2022/04/11 06:47:21;;;;;;;1.83;1.80;;;3.50;98.00;;;;;;5093014;28;20883;-67
2022/04/11 06:49:50;;;;;;;2.17;1.83;;;3.50;98.00;;;;;;5092651;28;20444;-66
2022/04/11 06:52:17;;;;;;;1.20;1.10;;;3.60;98.00;;;;;;5091667;28;20462;-66
2022/04/11 06:54:44;;;;;;;1.20;1.00;;;3.70;98.00;;;;;;5092760;28;20491;-67
2022/04/11 06:57:12;;;;;;;2.07;1.53;;;3.80;98.00;;;;;;5091042;28;20951;-66
2022/04/11 06:59:39;;;;;;;1.20;1.10;;;4.00;98.00;;;;;;5092608;28;20458;-66
2022/04/11 07:02:06;;;;;;;1.87;1.63;;;4.20;98.00;;;;;;5092571;28;20476;-67
2022/04/11 07:04:33;;;;;;;1.90;1.40;;;4.40;98.00;;;;;;5092752;28;20537;-66
2022/04/11 07:07:01;;;;;;;3.00;1.50;;;4.50;98.00;;;;;;5092636;28;20895;-66
2022/04/11 07:09:31;;;;;;;1.93;1.50;;;4.70;98.00;;;;;;5091559;28;20457;-66
2022/04/11 07:11:58;;;;;;;1.40;1.37;;;5.00;98.00;;;;;;5092431;28;20993;-67
2022/04/11 07:14:25;;;;;;;1.30;1.20;;;5.00;98.00;;;;;;5092750;28;20478;-67
2022/04/11 07:16:52;;;;;;;1.60;1.40;;;5.10;98.00;;;;;;5092233;28;20459;-66
2022/04/11 07:19:19;;;;;;;2.07;1.50;;;5.30;98.00;;;;;;5092639;28;20969;-67
2022/04/11 07:21:47;;;;;;;1.70;1.33;;;5.50;98.00;;;;;;5092438;28;20460;-66
2022/04/11 07:24:15;;;;;;;1.20;1.00;;;5.70;98.00;;;;;;5092639;28;20474;-67
2022/04/11 07:26:42;;;;;;;1.20;1.10;;;5.90;98.00;;;;;;5092355;28;20460;-67
2022/04/11 07:29:10;;;;;;;1.97;1.37;;;6.10;98.00;;;;;;5092500;28;20455;-67
2022/04/11 07:31:37;;;;;;;1.60;1.40;;;6.30;98.00;;;;;;5092274;28;20484;-67
2022/04/11 07:34:04;;;;;;;1.20;1.10;;;6.50;98.00;;;;;;5092401;28;20457;-67
2022/04/11 07:36:31;;;;;;;1.20;1.10;;;6.80;98.00;;;;;;5092229;28;20548;-67
2022/04/11 07:38:58;;;;;;;1.20;1.00;;;7.00;98.00;;;;;;5092179;28;20492;-66
2022/04/11 07:41:27;;;;;;;1.30;1.20;;;7.20;98.00;;;;;;5092120;28;20557;-65
2022/04/11 07:43:56;;;;;;;1.20;1.10;;;7.50;98.00;;;;;;5091915;28;20459;-67
2022/04/11 07:46:23;;;;;;;1.20;1.10;;;7.70;98.00;;;;;;5090750;28;21323;-67
2022/04/11 07:48:53;;;;;;;1.40;1.10;;;7.80;98.00;;;;;;5091980;28;20874;-67
2022/04/11 07:51:20;;;;;;;1.20;1.10;;;8.00;98.00;;;;;;5091668;28;20571;-66
2022/04/11 07:53:47;;;;;;;1.40;1.30;;;8.20;98.00;;;;;;5091842;28;20450;-67
2022/04/11 07:56:14;;;;;;;1.30;1.10;;;8.40;98.00;;;;;;5090691;28;20486;-66
2022/04/11 07:58:42;;;;;;;1.20;1.10;;;8.50;98.00;;;;;;5091890;28;20866;-67
2022/04/11 08:01:14;;;;;;;1.20;1.00;;;8.70;98.00;;;;;;5091732;28;20544;-66
2022/04/11 08:03:41;;;;;;;1.20;1.07;;;8.90;97.70;;;;;;5091765;28;20474;-67
2022/04/11 08:06:08;;;;;;;1.20;0.97;;;9.00;96.50;;;;;;5091904;28;20453;-66
2022/04/11 08:08:35;;;;;;;1.30;1.10;;;9.10;95.80;;;;;;5091769;28;20457;-67
2022/04/11 08:11:04;;;;;;;2.70;1.30;;;9.30;96.00;;;;;;5095859;28;20517;-68
2022/04/11 08:13:31;;;;;;;1.40;1.40;;;9.40;94.60;;;;;;5096091;28;20497;-66
2022/04/11 08:16:03;;;;;;;1.50;1.10;;;9.50;96.90;;;;;;5095923;28;20539;-67
2022/04/11 08:18:30;;;;;;;1.20;1.20;;;9.60;93.70;;;;;;5095419;28;20513;-66
2022/04/11 08:20:57;;;;;;;2.40;1.20;;;9.70;93.10;;;;;;5096190;28;20454;-68
2022/04/11 08:23:24;;;;;;;1.30;1.10;;;9.80;94.20;;;;;;5096371;28;20491;-66
2022/04/11 08:25:52;;;;;;;1.50;1.50;;;9.90;93.60;;;;;;5095551;28;20847;-67
2022/04/11 08:28:20;;;;;;;1.70;1.20;;;10.00;92.90;;;;;;5096011;28;20450;-67
2022/04/11 08:30:47;;;;;;;1.20;1.00;;;10.20;92.50;;;;;;5095316;28;20480;-67
2022/04/11 08:33:16;;;;;;;1.70;1.07;;;10.30;92.10;;;;;;5095800;28;20457;-67
2022/04/11 08:35:44;;;;;;;2.50;1.20;;;10.40;93.60;;;;;;5095049;28;20470;-66
2022/04/11 08:38:11;;;;;;;1.33;1.30;;;10.60;90.90;;;;;;5094830;28;20448;-67
2022/04/11 08:40:38;;;;;;;1.50;1.20;;;10.70;92.10;;;;;;5095264;28;20483;-67
2022/04/11 08:43:06;;;;;;;1.77;1.40;;;10.90;91.20;;;;;;5095279;28;20517;-67
2022/04/11 08:45:33;;;;;;;1.20;1.00;;;11.00;92.00;;;;;;5095117;28;20456;-67
2022/04/11 08:48:00;;;;;;;1.30;1.20;;;11.10;89.40;;;;;;5095363;28;20444;-67
2022/04/11 08:50:29;;;;;;;2.50;1.33;;;11.30;89.70;;;;;;5095078;28;20563;-67
2022/04/11 08:52:57;;;;;;;1.40;1.20;;;11.40;87.30;;;;;;5095262;28;20494;-67
2022/04/11 08:55:24;;;;;;;1.30;1.10;;;11.40;87.40;;;;;;5095022;28;20456;-67
2022/04/11 08:57:51;;;;;;;1.23;1.17;;;11.50;86.30;;;;;;5095157;28;20488;-67
2022/04/11 09:00:20;;;;;;;1.60;1.30;;;11.60;86.10;;;;;;5094954;28;20455;-67
2022/04/11 09:02:48;;;;;;;1.30;1.30;;;11.70;88.40;;;;;;5095129;28;20456;-67
2022/04/11 09:05:21;;;;;;;1.37;1.30;;;11.90;86.90;;;;;;5095151;28;20528;-67
2022/04/11 09:07:54;;;;;;;2.23;1.23;;;12.00;88.20;;;;;;5095034;28;20527;-67
2022/04/11 09:10:25;;;;;;;1.30;1.30;;;12.10;83.90;;;;;;5095114;28;20546;-67
2022/04/11 09:12:53;;;;;;;1.43;1.37;;;12.30;84.90;;;;;;5095146;28;20478;-67
2022/04/11 09:15:23;;;;;;;2.00;1.70;;;12.40;84.70;;;;;;5094996;28;20552;-67
2022/04/11 09:17:51;;;;;;;1.27;1.07;;;12.60;83.00;;;;;;5094725;28;20927;-67
2022/04/11 09:20:21;;;;;;;1.50;1.30;;;12.60;82.90;;;;;;5094588;28;20547;-67
2022/04/11 09:22:54;;;;;;;2.13;1.20;;;12.70;82.30;;;;;;5090346;28;20557;-67
2022/04/11 09:25:23;;;;;;;1.30;1.20;;;12.90;82.60;;;;;;5092000;28;20454;-68
2022/04/11 09:28:09;;;;;;;1.87;1.20;;;13.00;81.40;;;;;;5091470;28;20878;-69
2022/04/11 09:30:38;;;;;;;2.03;1.47;;;13.20;84.50;;;;;;5091047;28;20450;-69
2022/04/11 09:33:06;;;;;;;2.30;1.40;;;13.30;79.90;;;;;;5091172;28;20894;-69
2022/04/11 09:35:35;;;;;;;1.73;1.40;;;13.40;78.90;;;;;;5091960;28;21051;-68
2022/04/11 09:38:12;;;;;;;1.30;1.10;;;13.50;79.30;;;;;;5091748;28;20466;-68
2022/04/11 09:40:43;;;;;;;1.27;1.13;;;13.60;79.50;;;;;;5091517;28;20455;-69
2022/04/11 09:43:11;;;;;;;5.33;1.50;;;13.60;79.50;;;;;;5091701;28;20461;-68
2022/04/11 09:45:45;;;;;;;1.30;1.17;;;13.70;79.70;;;;;;5091508;28;20541;-68
2022/04/11 09:48:17;;;;;;;1.67;1.57;;;13.90;80.40;;;;;;5091483;28;20455;-69
2022/04/11 09:50:44;;;;;;;1.20;1.10;;;13.90;82.20;;;;;;5087415;28;20459;-69
2022/04/11 09:53:14;;;;;;;1.20;1.10;;;14.10;81.10;;;;;;5091779;28;20465;-68
2022/04/11 09:55:43;;;;;;;1.37;1.30;;;14.30;78.30;;;;;;5091466;28;20938;-69
2022/04/11 09:58:10;;;;;;;2.30;2.03;;;14.40;83.80;;;;;;5091008;28;20981;-68
2022/04/11 10:00:39;;;;;;;5.63;1.87;;;14.80;90.00;;;;;;5083299;28;20489;-68
2022/04/11 10:03:06;;;;;;;3.20;1.87;;;15.40;87.10;;;;;;5091649;28;20452;-68
2022/04/11 10:05:34;;;;;;;1.70;1.50;;;15.90;84.50;;;;;;5091022;28;20486;-69
2022/04/11 10:08:03;;;;;;;2.20;1.50;;;16.20;76.40;;;;;;5083342;28;20957;-68
2022/04/11 10:10:34;;;;;;;2.23;1.63;;;16.50;77.00;;;;;;5090633;28;20993;-68
2022/04/11 10:13:02;;;;;;;3.97;1.57;;;16.40;73.90;;;;;;5082826;28;20521;-68
2022/04/11 10:15:30;;;;;;;1.87;1.40;;;16.20;76.80;;;;;;5082656;28;20468;-68
2022/04/11 10:17:57;;;;;;;1.80;1.40;;;16.10;76.40;;;;;;5091104;28;20519;-68
2022/04/11 10:20:26;;;;;;;1.60;1.47;;;16.00;76.10;;;;;;5091103;28;20865;-68
2022/04/11 10:22:57;;;;;;;1.20;1.20;;;16.10;77.30;;;;;;5088214;28;20481;-68
2022/04/11 10:25:26;;;;;;;1.27;1.20;;;16.10;76.40;;;;;;5082858;28;20470;-68
2022/04/11 10:28:19;;;;;;;1.60;1.43;;;16.20;75.60;;;;;;5090427;28;20546;-68
2022/04/11 10:31:03;;;;;;;1.30;1.10;;;16.30;74.80;;;;;;5090618;28;20497;-68
2022/04/11 10:33:48;;;;;;;2.03;1.40;;;16.30;74.50;;;;;;5088936;28;20458;-68
2022/04/11 10:36:42;;;;;;;1.70;1.40;;;16.40;75.90;;;;;;5090211;28;20547;-68
2022/04/11 10:39:29;;;;;;;1.30;1.10;;;16.50;75.20;;;;;;5083672;28;20550;-68
2022/04/11 10:42:28;;;;;;;1.30;1.20;;;16.60;74.20;;;;;;5089974;28;20445;-68
2022/04/11 10:44:59;;;;;;;1.43;1.30;;;16.80;73.00;;;;;;5090596;28;20542;-68
2022/04/11 10:47:35;;;;;;;1.40;1.23;;;16.80;73.70;;;;;;5090229;28;20556;-68
2022/04/11 10:50:22;;;;;;;2.00;1.57;;;16.90;72.00;;;;;;5079776;28;20482;-68
2022/04/11 10:53:27;;;;;;;1.67;1.30;;;17.10;71.70;;;;;;5090197;28;20499;-67
2022/04/11 10:56:05;;;;;;;1.50;1.40;;;17.20;70.10;;;;;;5090101;28;20532;-68
2022/04/11 10:58:50;;;;;;;1.83;1.60;;;17.40;70.50;;;;;;5090374;28;20445;-68
2022/04/11 11:02:11;;;;;;;2.70;1.60;;;17.70;71.30;;;;;;5082628;28;20489;-67
2022/04/11 11:04:43;;;;;;;1.30;1.23;;;17.80;68.40;;;;;;5027425;28;20473;-67
2022/04/11 11:07:29;;;;;;;1.37;1.13;;;17.90;71.50;;;;;;5078757;28;20549;-67
2022/04/11 11:09:58;;;;;;;1.20;1.20;;;18.10;69.30;;;;;;5082596;28;20526;-68
2022/04/11 11:12:25;;;;;;;2.50;1.57;;;18.20;70.00;;;;;;5090311;28;20587;-67
2022/04/11 11:14:52;;;;;;;1.73;1.60;;;18.40;69.70;;;;;;5089995;28;20593;-66
2022/04/11 11:17:20;;;;;;;1.50;1.20;;;18.60;69.60;;;;;;5089903;28;20491;-65
2022/04/11 11:20:06;;;;;;;1.40;1.10;;;18.70;69.30;;;;;;5089616;28;21024;-66
2022/04/11 11:22:35;;;;;;;1.97;1.40;;;18.80;67.10;;;;;;5088817;28;20938;-66
2022/04/11 11:25:18;;;;;;;1.40;1.30;;;19.10;65.80;;;;;;5089746;28;20456;-66
2022/04/11 11:27:46;;;;;;;1.80;1.53;;;19.00;65.30;;;;;;5089616;28;20456;-67
2022/04/11 11:30:14;;;;;;;1.73;1.50;;;19.30;67.10;;;;;;5089705;28;20954;-66
2022/04/11 11:32:43;;;;;;;1.37;1.10;;;19.30;63.20;;;;;;5089554;28;20583;-67
2022/04/11 11:35:11;;;;;;;2.07;1.50;;;19.50;63.80;;;;;;5089055;28;20452;-67
2022/04/11 11:37:39;;;;;;;2.27;1.50;;;19.70;63.50;;;;;;5089376;28;20448;-67
2022/04/11 11:40:09;;;;;;;1.70;1.60;;;19.90;62.60;;;;;;5089205;28;20463;-67
2022/04/11 11:42:38;;;;;;;1.60;1.50;;;19.80;62.90;;;;;;5089430;28;20460;-68
2022/04/11 11:45:07;;;;;;;1.57;1.30;;;19.90;61.40;;;;;;5089136;28;20826;-67
2022/04/11 11:47:35;;;;;;;1.67;1.50;;;20.00;61.40;;;;;;5089301;28;20539;-67
2022/04/11 11:50:05;;;;;;;1.30;1.20;;;20.10;60.70;;;;;;5087077;28;20472;-67
2022/04/11 11:52:32;;;;;;;1.30;1.20;;;20.20;60.70;;;;;;5089236;28;20519;-67
2022/04/11 11:55:02;;;;;;;1.67;1.47;;;20.20;60.60;;;;;;5089681;28;20487;-67
2022/04/11 11:57:30;;;;;;;3.73;1.43;;;20.50;64.30;;;;;;5089506;28;20930;-67
2022/04/11 11:59:59;;;;;;;1.57;1.40;;;20.60;61.80;;;;;;5089112;28;20456;-66
2022/04/11 12:05:21;;;;;;;3.10;1.60;;;21.10;62.40;;;;;;5092084;28;20481;-67
2022/04/11 12:07:50;;;;;;;1.40;1.27;;;21.40;61.40;;;;;;5091966;28;20542;-66
2022/04/11 12:10:18;;;;;;;1.60;1.50;;;21.50;60.70;;;;;;5091490;28;20562;-66
2022/04/11 12:12:46;;;;;;;2.30;1.57;;;21.50;60.70;;;;;;5092104;28;20906;-67
2022/04/11 12:15:14;;;;;;;1.60;1.50;;;21.70;59.40;;;;;;5091819;28;20509;-66
2022/04/11 12:17:43;;;;;;;2.60;2.00;;;21.60;58.10;;;;;;5091627;28;20468;-67
2022/04/11 12:20:13;;;;;;;1.70;1.50;;;21.20;57.20;;;;;;5091764;28;20475;-66
2022/04/11 12:22:59;;;;;;;1.70;1.57;;;21.10;61.30;;;;;;5091539;28;20459;-66
2022/04/11 12:25:28;;;;;;;1.67;1.67;;;21.50;60.20;;;;;;5091538;28;20459;-66
2022/04/11 12:28:17;;;;;;;1.57;1.47;;;21.90;60.20;;;;;;5091833;28;20456;-67
2022/04/11 12:30:48;;;;;;;1.40;1.40;;;22.00;59.70;;;;;;5091504;28;20488;-67
2022/04/11 12:33:35;;;;;;;2.10;1.53;;;22.10;58.50;;;;;;5091633;28;20877;-66
2022/04/11 12:36:11;;;;;;;3.60;1.77;;;22.40;60.00;;;;;;5091430;28;20462;-66
2022/04/11 12:38:50;;;;;;;1.63;1.40;;;22.70;60.00;;;;;;5091646;28;20546;-67
2022/04/11 12:41:35;;;;;;;2.10;1.50;;;22.90;59.70;;;;;;5091529;28;20467;-66
2022/04/11 12:44:11;;;;;;;1.60;1.30;;;22.80;59.20;;;;;;5091620;28;20462;-66
2022/04/11 12:46:39;;;;;;;2.83;1.83;;;22.70;60.70;;;;;;5091494;28;20879;-67
2022/04/11 12:49:07;;;;;;;2.90;2.00;;;22.60;60.20;;;;;;5090181;28;20461;-66
2022/04/11 12:51:35;;;;;;;1.60;1.40;;;22.70;60.20;;;;;;5091355;28;20483;-66
2022/04/11 12:54:06;;;;;;;1.57;1.30;;;22.50;58.30;;;;;;5091524;28;20460;-67
2022/04/11 12:56:42;;;;;;;1.60;1.40;;;22.60;58.50;;;;;;5094404;28;20487;-67
2022/04/11 12:59:10;;;;;;;2.07;1.50;;;22.80;57.80;;;;;;5095016;28;20456;-67
2022/04/11 13:01:57;;;;;;;1.90;1.70;;;22.90;59.10;;;;;;5095139;28;20875;-66
2022/04/11 13:04:24;;;;;;;2.30;1.70;;;23.10;58.00;;;;;;5095411;28;20538;-66
2022/04/11 13:06:52;;;;;;;3.70;1.80;;;23.00;54.30;;;;;;5094828;28;20463;-66